sensor_id;sensor_type;location;lat;lon;timestamp;P1;durP1;ratioP1;P2;durP2;ratioP2
2201;SDS011;1107;48.654;9.250;2023-06-24T00:02:11;8.50;;;8.00;;
2201;SDS011;1107;48.654;9.250;2023-06-24T00:04:39;8.80;;;8.30;;
2201;SDS011;1107;48.654;9.250;2023-06-24T00:07:06;7.70;;;7.30;;
2201;SDS011;1107;48.654;9.250;2023-06-24T00:09:32;8.90;;;8.33;;
2201;SDS011;1107;48.654;9.250;2023-06-24T00:12:00;8.30;;;7.80;;
2201;SDS011;1107;48.654;9.250;2023-06-24T00:14:28;7.80;;;7.23;;
2201;SDS011;1107;48.654;9.250;2023-06-24T00:16:55;9.00;;;8.50;;
2201;SDS011;1107;48.654;9.250;2023-06-24T00:19:24;8.27;;;7.77;;
2201;SDS011;1107;48.654;9.250;2023-06-24T00:21:52;12.33;;;8.20;;
2201;SDS011;1107;48.654;9.250;2023-06-24T00:24:19;8.03;;;7.63;;
2201;SDS011;1107;48.654;9.250;2023-06-24T00:26:50;9.30;;;8.40;;
2201;SDS011;1107;48.654;9.250;2023-06-24T00:29:18;7.90;;;7.40;;
2201;SDS011;1107;48.654;9.250;2023-06-24T00:31:45;8.40;;;7.83;;
2201;SDS011;1107;48.654;9.250;2023-06-24T00:34:12;8.67;;;7.90;;
2201;SDS011;1107;48.654;9.250;2023-06-24T00:36:40;7.70;;;7.10;;
2201;SDS011;1107;48.654;9.250;2023-06-24T00:39:11;8.50;;;7.80;;
2201;SDS011;1107;48.654;9.250;2023-06-24T00:41:38;8.53;;;8.03;;
2201;SDS011;1107;48.654;9.250;2023-06-24T00:44:05;8.20;;;7.80;;
2201;SDS011;1107;48.654;9.250;2023-06-24T00:46:32;16.47;;;7.90;;
2201;SDS011;1107;48.654;9.250;2023-06-24T00:49:01;8.03;;;7.57;;
2201;SDS011;1107;48.654;9.250;2023-06-24T00:51:29;8.77;;;8.17;;
2201;SDS011;1107;48.654;9.250;2023-06-24T00:53:58;7.60;;;7.20;;
2201;SDS011;1107;48.654;9.250;2023-06-24T00:56:28;7.13;;;6.83;;
2201;SDS011;1107;48.654;9.250;2023-06-24T00:58:57;8.63;;;7.83;;
2201;SDS011;1107;48.654;9.250;2023-06-24T01:01:26;8.73;;;8.13;;
2201;SDS011;1107;48.654;9.250;2023-06-24T01:03:57;8.50;;;7.80;;
2201;SDS011;1107;48.654;9.250;2023-06-24T01:06:24;8.10;;;7.70;;
2201;SDS011;1107;48.654;9.250;2023-06-24T01:08:53;14.23;;;8.40;;
2201;SDS011;1107;48.654;9.250;2023-06-24T01:11:23;10.00;;;9.20;;
2201;SDS011;1107;48.654;9.250;2023-06-24T01:13:50;8.67;;;8.07;;
2201;SDS011;1107;48.654;9.250;2023-06-24T01:16:19;10.60;;;9.73;;
2201;SDS011;1107;48.654;9.250;2023-06-24T01:18:54;13.87;;;12.60;;
2201;SDS011;1107;48.654;9.250;2023-06-24T01:21:29;10.50;;;9.77;;
2201;SDS011;1107;48.654;9.250;2023-06-24T01:24:13;10.47;;;9.67;;
2201;SDS011;1107;48.654;9.250;2023-06-24T01:27:07;8.30;;;7.80;;
2201;SDS011;1107;48.654;9.250;2023-06-24T01:30:02;8.60;;;8.00;;
2201;SDS011;1107;48.654;9.250;2023-06-24T01:32:56;9.60;;;8.70;;
2201;SDS011;1107;48.654;9.250;2023-06-24T01:35:28;9.03;;;8.50;;
2201;SDS011;1107;48.654;9.250;2023-06-24T01:37:58;8.80;;;8.30;;
2201;SDS011;1107;48.654;9.250;2023-06-24T01:40:27;9.80;;;9.07;;
2201;SDS011;1107;48.654;9.250;2023-06-24T01:42:59;9.27;;;8.73;;
2201;SDS011;1107;48.654;9.250;2023-06-24T01:45:28;9.00;;;8.60;;
2201;SDS011;1107;48.654;9.250;2023-06-24T01:48:04;9.87;;;9.03;;
2201;SDS011;1107;48.654;9.250;2023-06-24T01:50:35;9.90;;;8.93;;
2201;SDS011;1107;48.654;9.250;2023-06-24T01:53:06;10.33;;;9.50;;
2201;SDS011;1107;48.654;9.250;2023-06-24T01:55:34;9.47;;;8.70;;
2201;SDS011;1107;48.654;9.250;2023-06-24T01:58:04;9.83;;;9.23;;
2201;SDS011;1107;48.654;9.250;2023-06-24T02:00:33;10.87;;;10.10;;
2201;SDS011;1107;48.654;9.250;2023-06-24T02:03:03;9.87;;;9.23;;
2201;SDS011;1107;48.654;9.250;2023-06-24T02:05:31;9.93;;;9.10;;
2201;SDS011;1107;48.654;9.250;2023-06-24T02:07:59;10.53;;;9.83;;
2201;SDS011;1107;48.654;9.250;2023-06-24T02:10:28;9.80;;;9.10;;
2201;SDS011;1107;48.654;9.250;2023-06-24T02:12:56;10.53;;;9.40;;
2201;SDS011;1107;48.654;9.250;2023-06-24T02:15:24;10.47;;;9.50;;
2201;SDS011;1107;48.654;9.250;2023-06-24T02:17:53;10.33;;;9.43;;
2201;SDS011;1107;48.654;9.250;2023-06-24T02:20:22;10.63;;;9.93;;
2201;SDS011;1107;48.654;9.250;2023-06-24T02:22:52;10.43;;;9.30;;
2201;SDS011;1107;48.654;9.250;2023-06-24T02:25:20;13.83;;;9.80;;
2201;SDS011;1107;48.654;9.250;2023-06-24T02:27:47;10.10;;;9.13;;
2201;SDS011;1107;48.654;9.250;2023-06-24T02:30:15;10.53;;;9.70;;
2201;SDS011;1107;48.654;9.250;2023-06-24T02:32:43;10.37;;;9.37;;
2201;SDS011;1107;48.654;9.250;2023-06-24T02:35:10;11.20;;;10.10;;
2201;SDS011;1107;48.654;9.250;2023-06-24T02:37:39;11.37;;;10.67;;
2201;SDS011;1107;48.654;9.250;2023-06-24T02:40:06;10.17;;;9.47;;
2201;SDS011;1107;48.654;9.250;2023-06-24T02:42:35;9.70;;;9.10;;
2201;SDS011;1107;48.654;9.250;2023-06-24T02:45:02;9.87;;;9.30;;
2201;SDS011;1107;48.654;9.250;2023-06-24T02:47:31;10.50;;;9.80;;
2201;SDS011;1107;48.654;9.250;2023-06-24T02:50:01;9.60;;;9.03;;
2201;SDS011;1107;48.654;9.250;2023-06-24T02:52:29;9.70;;;8.90;;
2201;SDS011;1107;48.654;9.250;2023-06-24T02:54:58;8.90;;;8.30;;
2201;SDS011;1107;48.654;9.250;2023-06-24T02:57:25;9.17;;;8.30;;
2201;SDS011;1107;48.654;9.250;2023-06-24T02:59:52;8.90;;;8.20;;
2201;SDS011;1107;48.654;9.250;2023-06-24T03:02:19;8.70;;;8.30;;
2201;SDS011;1107;48.654;9.250;2023-06-24T03:04:47;8.50;;;8.10;;
2201;SDS011;1107;48.654;9.250;2023-06-24T03:07:16;8.17;;;7.70;;
2201;SDS011;1107;48.654;9.250;2023-06-24T03:09:45;8.80;;;8.20;;
2201;SDS011;1107;48.654;9.250;2023-06-24T03:12:14;8.37;;;7.97;;
2201;SDS011;1107;48.654;9.250;2023-06-24T03:14:41;8.50;;;8.10;;
2201;SDS011;1107;48.654;9.250;2023-06-24T03:17:07;10.77;;;7.80;;
2201;SDS011;1107;48.654;9.250;2023-06-24T03:19:35;8.37;;;7.77;;
2201;SDS011;1107;48.654;9.250;2023-06-24T03:22:02;7.70;;;7.10;;
2201;SDS011;1107;48.654;9.250;2023-06-24T03:24:30;7.47;;;6.77;;
2201;SDS011;1107;48.654;9.250;2023-06-24T03:26:57;8.03;;;7.53;;
2201;SDS011;1107;48.654;9.250;2023-06-24T03:29:25;8.47;;;7.83;;
2201;SDS011;1107;48.654;9.250;2023-06-24T03:31:52;8.23;;;7.73;;
2201;SDS011;1107;48.654;9.250;2023-06-24T03:34:19;7.93;;;7.40;;
2201;SDS011;1107;48.654;9.250;2023-06-24T03:36:46;8.47;;;7.80;;
2201;SDS011;1107;48.654;9.250;2023-06-24T03:39:13;8.20;;;7.90;;
2201;SDS011;1107;48.654;9.250;2023-06-24T03:41:40;8.07;;;7.63;;
2201;SDS011;1107;48.654;9.250;2023-06-24T03:44:07;8.57;;;8.07;;
2201;SDS011;1107;48.654;9.250;2023-06-24T03:46:35;8.40;;;7.83;;
2201;SDS011;1107;48.654;9.250;2023-06-24T03:49:02;8.17;;;7.77;;
2201;SDS011;1107;48.654;9.250;2023-06-24T03:51:29;9.10;;;8.47;;
2201;SDS011;1107;48.654;9.250;2023-06-24T03:53:56;8.33;;;7.77;;
2201;SDS011;1107;48.654;9.250;2023-06-24T03:56:23;9.97;;;8.20;;
2201;SDS011;1107;48.654;9.250;2023-06-24T03:58:50;8.13;;;7.63;;
2201;SDS011;1107;48.654;9.250;2023-06-24T04:01:17;7.73;;;7.33;;
2201;SDS011;1107;48.654;9.250;2023-06-24T04:03:46;8.27;;;7.57;;
2201;SDS011;1107;48.654;9.250;2023-06-24T04:06:13;7.93;;;7.53;;
2201;SDS011;1107;48.654;9.250;2023-06-24T04:08:40;8.40;;;7.90;;
2201;SDS011;1107;48.654;9.250;2023-06-24T04:11:08;7.77;;;7.43;;
2201;SDS011;1107;48.654;9.250;2023-06-24T04:13:35;8.10;;;7.30;;
2201;SDS011;1107;48.654;9.250;2023-06-24T04:16:02;8.33;;;7.83;;
2201;SDS011;1107;48.654;9.250;2023-06-24T04:18:29;9.60;;;8.70;;
2201;SDS011;1107;48.654;9.250;2023-06-24T04:20:58;10.70;;;8.60;;
2201;SDS011;1107;48.654;9.250;2023-06-24T04:23:24;8.00;;;7.60;;
2201;SDS011;1107;48.654;9.250;2023-06-24T04:25:51;9.70;;;9.03;;
2201;SDS011;1107;48.654;9.250;2023-06-24T04:28:18;8.33;;;7.83;;
2201;SDS011;1107;48.654;9.250;2023-06-24T04:30:45;9.47;;;8.90;;
2201;SDS011;1107;48.654;9.250;2023-06-24T04:33:12;9.10;;;8.50;;
2201;SDS011;1107;48.654;9.250;2023-06-24T04:35:39;8.80;;;8.30;;
2201;SDS011;1107;48.654;9.250;2023-06-24T04:38:07;8.93;;;8.50;;
2201;SDS011;1107;48.654;9.250;2023-06-24T04:40:34;8.40;;;8.00;;
2201;SDS011;1107;48.654;9.250;2023-06-24T04:43:02;8.47;;;8.07;;
2201;SDS011;1107;48.654;9.250;2023-06-24T04:45:29;12.30;;;8.50;;
2201;SDS011;1107;48.654;9.250;2023-06-24T04:47:56;7.87;;;7.43;;
2201;SDS011;1107;48.654;9.250;2023-06-24T04:50:23;8.97;;;8.40;;
2201;SDS011;1107;48.654;9.250;2023-06-24T04:52:52;8.23;;;7.83;;
2201;SDS011;1107;48.654;9.250;2023-06-24T04:55:23;8.00;;;7.60;;
2201;SDS011;1107;48.654;9.250;2023-06-24T04:57:50;8.30;;;7.90;;
2201;SDS011;1107;48.654;9.250;2023-06-24T05:00:17;8.33;;;7.90;;
2201;SDS011;1107;48.654;9.250;2023-06-24T05:02:44;8.87;;;8.27;;
2201;SDS011;1107;48.654;9.250;2023-06-24T05:05:11;9.30;;;8.80;;
2201;SDS011;1107;48.654;9.250;2023-06-24T05:07:38;8.30;;;7.90;;
2201;SDS011;1107;48.654;9.250;2023-06-24T05:10:05;8.13;;;7.73;;
2201;SDS011;1107;48.654;9.250;2023-06-24T05:12:34;8.50;;;7.73;;
2201;SDS011;1107;48.654;9.250;2023-06-24T05:15:01;8.70;;;8.10;;
2201;SDS011;1107;48.654;9.250;2023-06-24T05:17:28;8.97;;;8.30;;
2201;SDS011;1107;48.654;9.250;2023-06-24T05:19:54;8.30;;;7.80;;
2201;SDS011;1107;48.654;9.250;2023-06-24T05:22:21;8.63;;;8.00;;
2201;SDS011;1107;48.654;9.250;2023-06-24T05:24:48;8.70;;;8.10;;
2201;SDS011;1107;48.654;9.250;2023-06-24T05:27:15;8.80;;;8.40;;
2201;SDS011;1107;48.654;9.250;2023-06-24T05:29:44;8.57;;;7.90;;
2201;SDS011;1107;48.654;9.250;2023-06-24T05:32:12;8.10;;;7.70;;
2201;SDS011;1107;48.654;9.250;2023-06-24T05:34:38;9.27;;;8.33;;
2201;SDS011;1107;48.654;9.250;2023-06-24T05:37:05;8.40;;;8.00;;
2201;SDS011;1107;48.654;9.250;2023-06-24T05:39:32;8.97;;;8.57;;
2201;SDS011;1107;48.654;9.250;2023-06-24T05:41:59;9.00;;;8.47;;
2201;SDS011;1107;48.654;9.250;2023-06-24T05:44:26;8.63;;;8.13;;
2201;SDS011;1107;48.654;9.250;2023-06-24T05:46:54;8.40;;;7.90;;
2201;SDS011;1107;48.654;9.250;2023-06-24T05:49:21;7.77;;;7.43;;
2201;SDS011;1107;48.654;9.250;2023-06-24T05:51:48;8.03;;;7.63;;
2201;SDS011;1107;48.654;9.250;2023-06-24T05:54:15;8.30;;;7.90;;
2201;SDS011;1107;48.654;9.250;2023-06-24T05:56:42;8.57;;;8.17;;
2201;SDS011;1107;48.654;9.250;2023-06-24T05:59:09;8.00;;;7.60;;
2201;SDS011;1107;48.654;9.250;2023-06-24T06:01:36;8.57;;;8.07;;
2201;SDS011;1107;48.654;9.250;2023-06-24T06:04:04;7.40;;;7.10;;
2201;SDS011;1107;48.654;9.250;2023-06-24T06:06:31;7.80;;;7.40;;
2201;SDS011;1107;48.654;9.250;2023-06-24T06:08:58;8.10;;;7.70;;
2201;SDS011;1107;48.654;9.250;2023-06-24T06:11:25;7.90;;;7.50;;
2201;SDS011;1107;48.654;9.250;2023-06-24T06:13:52;8.03;;;7.43;;
2201;SDS011;1107;48.654;9.250;2023-06-24T06:16:19;7.60;;;7.20;;
2201;SDS011;1107;48.654;9.250;2023-06-24T06:18:46;8.10;;;7.70;;
2201;SDS011;1107;48.654;9.250;2023-06-24T06:21:15;7.20;;;6.90;;
2201;SDS011;1107;48.654;9.250;2023-06-24T06:23:42;7.30;;;7.00;;
2201;SDS011;1107;48.654;9.250;2023-06-24T06:38:23;6.60;;;6.30;;
2201;SDS011;1107;48.654;9.250;2023-06-24T06:40:50;6.13;;;5.73;;
2201;SDS011;1107;48.654;9.250;2023-06-24T06:43:17;6.47;;;6.17;;
2201;SDS011;1107;48.654;9.250;2023-06-24T06:45:44;5.83;;;5.53;;
2201;SDS011;1107;48.654;9.250;2023-06-24T06:48:11;6.40;;;6.00;;
2201;SDS011;1107;48.654;9.250;2023-06-24T06:50:38;6.20;;;5.90;;
2201;SDS011;1107;48.654;9.250;2023-06-24T06:53:05;5.67;;;5.37;;
2201;SDS011;1107;48.654;9.250;2023-06-24T06:55:33;5.50;;;5.30;;
2201;SDS011;1107;48.654;9.250;2023-06-24T07:02:53;5.63;;;5.43;;
2201;SDS011;1107;48.654;9.250;2023-06-24T07:05:20;5.60;;;5.30;;
2201;SDS011;1107;48.654;9.250;2023-06-24T07:07:47;6.03;;;5.63;;
2201;SDS011;1107;48.654;9.250;2023-06-24T07:27:25;5.60;;;5.40;;
2201;SDS011;1107;48.654;9.250;2023-06-24T07:29:53;6.70;;;6.20;;
2201;SDS011;1107;48.654;9.250;2023-06-24T07:32:20;5.80;;;5.60;;
2201;SDS011;1107;48.654;9.250;2023-06-24T07:34:47;5.30;;;5.10;;
2201;SDS011;1107;48.654;9.250;2023-06-24T07:37:14;5.70;;;5.40;;
2201;SDS011;1107;48.654;9.250;2023-06-24T07:39:41;5.23;;;5.00;;
2201;SDS011;1107;48.654;9.250;2023-06-24T07:42:08;5.47;;;5.27;;
2201;SDS011;1107;48.654;9.250;2023-06-24T07:44:35;5.77;;;5.47;;
2201;SDS011;1107;48.654;9.250;2023-06-24T07:47:06;6.40;;;5.90;;
2201;SDS011;1107;48.654;9.250;2023-06-24T07:49:33;5.40;;;5.20;;
2201;SDS011;1107;48.654;9.250;2023-06-24T07:52:00;4.93;;;4.73;;
2201;SDS011;1107;48.654;9.250;2023-06-24T08:55:47;4.67;;;4.37;;
2201;SDS011;1107;48.654;9.250;2023-06-24T08:58:19;5.10;;;4.90;;
2201;SDS011;1107;48.654;9.250;2023-06-24T09:00:46;4.80;;;4.60;;
2201;SDS011;1107;48.654;9.250;2023-06-24T09:03:13;4.80;;;4.60;;
2201;SDS011;1107;48.654;9.250;2023-06-24T09:05:40;4.90;;;4.70;;
2201;SDS011;1107;48.654;9.250;2023-06-24T09:08:09;4.73;;;4.53;;
2201;SDS011;1107;48.654;9.250;2023-06-24T09:10:36;4.90;;;4.70;;
2201;SDS011;1107;48.654;9.250;2023-06-24T09:13:05;4.43;;;4.23;;
2201;SDS011;1107;48.654;9.250;2023-06-24T09:15:33;5.13;;;4.93;;
2201;SDS011;1107;48.654;9.250;2023-06-24T09:18:00;5.23;;;4.53;;
2201;SDS011;1107;48.654;9.250;2023-06-24T09:20:28;5.10;;;4.90;;
2201;SDS011;1107;48.654;9.250;2023-06-24T09:22:59;5.03;;;4.83;;
2201;SDS011;1107;48.654;9.250;2023-06-24T09:25:27;4.50;;;4.30;;
2201;SDS011;1107;48.654;9.250;2023-06-24T09:27:54;4.40;;;4.20;;
2201;SDS011;1107;48.654;9.250;2023-06-24T09:30:26;4.57;;;4.37;;
2201;SDS011;1107;48.654;9.250;2023-06-24T09:32:53;4.30;;;4.10;;
2201;SDS011;1107;48.654;9.250;2023-06-24T09:35:21;4.27;;;4.07;;
2201;SDS011;1107;48.654;9.250;2023-06-24T09:37:49;4.30;;;4.10;;
2201;SDS011;1107;48.654;9.250;2023-06-24T09:40:16;4.43;;;4.03;;
2201;SDS011;1107;48.654;9.250;2023-06-24T09:42:48;4.60;;;4.40;;
2201;SDS011;1107;48.654;9.250;2023-06-24T09:45:19;4.40;;;4.20;;
2201;SDS011;1107;48.654;9.250;2023-06-24T09:47:48;4.40;;;4.20;;
2201;SDS011;1107;48.654;9.250;2023-06-24T09:50:15;4.67;;;4.40;;
2201;SDS011;1107;48.654;9.250;2023-06-24T09:52:43;4.90;;;4.70;;
2201;SDS011;1107;48.654;9.250;2023-06-24T09:55:12;4.93;;;4.73;;
2201;SDS011;1107;48.654;9.250;2023-06-24T09:57:40;4.93;;;4.73;;
2201;SDS011;1107;48.654;9.250;2023-06-24T10:00:10;4.40;;;4.20;;
2201;SDS011;1107;48.654;9.250;2023-06-24T10:02:41;4.60;;;4.30;;
2201;SDS011;1107;48.654;9.250;2023-06-24T10:05:09;4.70;;;4.50;;
2201;SDS011;1107;48.654;9.250;2023-06-24T10:07:37;4.80;;;4.50;;
2201;SDS011;1107;48.654;9.250;2023-06-24T10:10:06;4.07;;;3.77;;
2201;SDS011;1107;48.654;9.250;2023-06-24T10:12:34;4.00;;;3.80;;
2201;SDS011;1107;48.654;9.250;2023-06-24T10:15:02;4.10;;;3.90;;
2201;SDS011;1107;48.654;9.250;2023-06-24T10:17:30;3.90;;;3.70;;
2201;SDS011;1107;48.654;9.250;2023-06-24T10:19:57;4.40;;;4.20;;
2201;SDS011;1107;48.654;9.250;2023-06-24T10:22:25;4.50;;;4.30;;
2201;SDS011;1107;48.654;9.250;2023-06-24T10:24:58;4.60;;;4.40;;
2201;SDS011;1107;48.654;9.250;2023-06-24T10:27:26;3.77;;;3.57;;
2201;SDS011;1107;48.654;9.250;2023-06-24T10:29:58;3.93;;;3.73;;
2201;SDS011;1107;48.654;9.250;2023-06-24T10:32:39;4.53;;;4.20;;
2201;SDS011;1107;48.654;9.250;2023-06-24T10:35:07;4.00;;;3.80;;
2201;SDS011;1107;48.654;9.250;2023-06-24T10:37:55;3.90;;;3.70;;
2201;SDS011;1107;48.654;9.250;2023-06-24T10:40:35;4.20;;;4.00;;
2201;SDS011;1107;48.654;9.250;2023-06-24T10:43:15;3.50;;;3.30;;
2201;SDS011;1107;48.654;9.250;2023-06-24T10:45:52;3.63;;;3.43;;
2201;SDS011;1107;48.654;9.250;2023-06-24T10:48:19;3.77;;;3.57;;
2201;SDS011;1107;48.654;9.250;2023-06-24T10:50:47;4.57;;;4.27;;
2201;SDS011;1107;48.654;9.250;2023-06-24T10:53:16;3.83;;;3.63;;
2201;SDS011;1107;48.654;9.250;2023-06-24T10:55:44;4.00;;;3.80;;
2201;SDS011;1107;48.654;9.250;2023-06-24T10:58:12;3.80;;;3.60;;
2201;SDS011;1107;48.654;9.250;2023-06-24T11:00:40;4.50;;;4.30;;
2201;SDS011;1107;48.654;9.250;2023-06-24T11:03:09;3.40;;;3.20;;
2201;SDS011;1107;48.654;9.250;2023-06-24T11:05:38;4.13;;;3.93;;
2201;SDS011;1107;48.654;9.250;2023-06-24T11:08:06;3.90;;;3.70;;
2201;SDS011;1107;48.654;9.250;2023-06-24T11:10:34;3.60;;;3.40;;
2201;SDS011;1107;48.654;9.250;2023-06-24T11:13:09;3.67;;;3.47;;
2201;SDS011;1107;48.654;9.250;2023-06-24T11:15:36;3.57;;;3.37;;
2201;SDS011;1107;48.654;9.250;2023-06-24T11:18:09;3.60;;;3.40;;
2201;SDS011;1107;48.654;9.250;2023-06-24T11:20:37;4.37;;;4.07;;
2201;SDS011;1107;48.654;9.250;2023-06-24T11:23:08;4.03;;;3.73;;
2201;SDS011;1107;48.654;9.250;2023-06-24T11:25:40;3.50;;;3.30;;
2201;SDS011;1107;48.654;9.250;2023-06-24T11:28:13;3.77;;;3.57;;
2201;SDS011;1107;48.654;9.250;2023-06-24T11:30:40;3.50;;;3.30;;
2201;SDS011;1107;48.654;9.250;2023-06-24T11:33:07;3.60;;;3.40;;
2201;SDS011;1107;48.654;9.250;2023-06-24T11:35:34;4.10;;;3.90;;
2201;SDS011;1107;48.654;9.250;2023-06-24T11:38:02;3.97;;;3.73;;
2201;SDS011;1107;48.654;9.250;2023-06-24T11:40:30;3.80;;;3.47;;
2201;SDS011;1107;48.654;9.250;2023-06-24T11:42:59;4.50;;;3.83;;
2201;SDS011;1107;48.654;9.250;2023-06-24T11:45:27;3.93;;;3.63;;
2201;SDS011;1107;48.654;9.250;2023-06-24T11:47:54;3.90;;;3.50;;
2201;SDS011;1107;48.654;9.250;2023-06-24T11:50:30;3.70;;;3.50;;
2201;SDS011;1107;48.654;9.250;2023-06-24T11:52:57;3.80;;;3.60;;
2201;SDS011;1107;48.654;9.250;2023-06-24T11:55:25;3.50;;;3.30;;
2201;SDS011;1107;48.654;9.250;2023-06-24T11:57:53;3.73;;;3.50;;
2201;SDS011;1107;48.654;9.250;2023-06-24T12:00:23;3.90;;;3.70;;
2201;SDS011;1107;48.654;9.250;2023-06-24T12:02:55;3.97;;;3.77;;
2201;SDS011;1107;48.654;9.250;2023-06-24T12:05:23;3.70;;;3.50;;
2201;SDS011;1107;48.654;9.250;2023-06-24T12:07:54;3.87;;;3.67;;
2201;SDS011;1107;48.654;9.250;2023-06-24T12:10:22;3.70;;;3.07;;
2201;SDS011;1107;48.654;9.250;2023-06-24T12:12:49;3.33;;;3.13;;
2201;SDS011;1107;48.654;9.250;2023-06-24T12:15:16;3.20;;;3.00;;
2201;SDS011;1107;48.654;9.250;2023-06-24T12:17:44;3.10;;;2.90;;
2201;SDS011;1107;48.654;9.250;2023-06-24T12:20:12;3.50;;;3.30;;
2201;SDS011;1107;48.654;9.250;2023-06-24T12:22:39;3.70;;;3.50;;
2201;SDS011;1107;48.654;9.250;2023-06-24T12:25:07;3.27;;;2.97;;
2201;SDS011;1107;48.654;9.250;2023-06-24T12:27:34;3.50;;;3.30;;
2201;SDS011;1107;48.654;9.250;2023-06-24T12:30:01;3.83;;;3.63;;
2201;SDS011;1107;48.654;9.250;2023-06-24T12:32:29;3.93;;;3.50;;
2201;SDS011;1107;48.654;9.250;2023-06-24T12:34:57;3.90;;;3.70;;
2201;SDS011;1107;48.654;9.250;2023-06-24T12:37:24;3.47;;;3.27;;
2201;SDS011;1107;48.654;9.250;2023-06-24T12:39:51;3.60;;;3.40;;
2201;SDS011;1107;48.654;9.250;2023-06-24T12:42:18;3.40;;;3.20;;
2201;SDS011;1107;48.654;9.250;2023-06-24T12:44:45;3.40;;;3.20;;
2201;SDS011;1107;48.654;9.250;2023-06-24T12:47:11;3.33;;;3.13;;
2201;SDS011;1107;48.654;9.250;2023-06-24T12:49:38;3.83;;;3.63;;
2201;SDS011;1107;48.654;9.250;2023-06-24T12:52:07;4.50;;;4.30;;
2201;SDS011;1107;48.654;9.250;2023-06-24T12:54:34;4.03;;;3.83;;
2201;SDS011;1107;48.654;9.250;2023-06-24T12:57:01;3.93;;;3.63;;
2201;SDS011;1107;48.654;9.250;2023-06-24T12:59:28;3.33;;;3.13;;
2201;SDS011;1107;48.654;9.250;2023-06-24T13:01:55;3.90;;;3.70;;
2201;SDS011;1107;48.654;9.250;2023-06-24T13:04:22;3.83;;;3.53;;
2201;SDS011;1107;48.654;9.250;2023-06-24T13:06:49;3.60;;;3.40;;
2201;SDS011;1107;48.654;9.250;2023-06-24T13:09:18;3.60;;;3.40;;
2201;SDS011;1107;48.654;9.250;2023-06-24T13:11:45;4.00;;;3.70;;
2201;SDS011;1107;48.654;9.250;2023-06-24T13:14:13;3.90;;;3.70;;
2201;SDS011;1107;48.654;9.250;2023-06-24T13:16:40;3.80;;;3.60;;
2201;SDS011;1107;48.654;9.250;2023-06-24T13:19:07;3.93;;;3.73;;
2201;SDS011;1107;48.654;9.250;2023-06-24T13:21:34;4.20;;;3.90;;
2201;SDS011;1107;48.654;9.250;2023-06-24T13:24:01;3.70;;;3.50;;
2201;SDS011;1107;48.654;9.250;2023-06-24T13:26:29;3.70;;;3.50;;
2201;SDS011;1107;48.654;9.250;2023-06-24T13:28:56;3.37;;;3.17;;
2201;SDS011;1107;48.654;9.250;2023-06-24T13:31:23;3.53;;;3.33;;
2201;SDS011;1107;48.654;9.250;2023-06-24T13:33:50;3.60;;;3.40;;
2201;SDS011;1107;48.654;9.250;2023-06-24T13:36:31;4.20;;;4.00;;
2201;SDS011;1107;48.654;9.250;2023-06-24T13:39:00;3.57;;;3.37;;
2201;SDS011;1107;48.654;9.250;2023-06-24T13:41:29;3.63;;;3.43;;
2201;SDS011;1107;48.654;9.250;2023-06-24T13:43:57;4.00;;;3.80;;
2201;SDS011;1107;48.654;9.250;2023-06-24T13:46:25;4.00;;;3.80;;
2201;SDS011;1107;48.654;9.250;2023-06-24T13:48:53;4.10;;;3.80;;
2201;SDS011;1107;48.654;9.250;2023-06-24T13:51:20;9.73;;;3.47;;
2201;SDS011;1107;48.654;9.250;2023-06-24T13:53:48;4.30;;;4.10;;
2201;SDS011;1107;48.654;9.250;2023-06-24T13:56:16;4.70;;;4.40;;
2201;SDS011;1107;48.654;9.250;2023-06-24T13:58:45;4.00;;;3.80;;
2201;SDS011;1107;48.654;9.250;2023-06-24T14:01:12;4.03;;;3.83;;
2201;SDS011;1107;48.654;9.250;2023-06-24T14:03:40;4.13;;;3.90;;
2201;SDS011;1107;48.654;9.250;2023-06-24T14:06:07;4.20;;;4.00;;
2201;SDS011;1107;48.654;9.250;2023-06-24T14:08:34;4.00;;;3.80;;
2201;SDS011;1107;48.654;9.250;2023-06-24T14:11:01;3.87;;;3.67;;
2201;SDS011;1107;48.654;9.250;2023-06-24T14:13:29;4.20;;;4.00;;
2201;SDS011;1107;48.654;9.250;2023-06-24T14:15:58;4.00;;;3.80;;
2201;SDS011;1107;48.654;9.250;2023-06-24T14:18:25;4.43;;;4.23;;
2201;SDS011;1107;48.654;9.250;2023-06-24T14:20:52;4.40;;;4.00;;
2201;SDS011;1107;48.654;9.250;2023-06-24T14:23:19;4.40;;;4.10;;
2201;SDS011;1107;48.654;9.250;2023-06-24T14:25:46;4.27;;;4.07;;
2201;SDS011;1107;48.654;9.250;2023-06-24T14:28:12;4.03;;;3.83;;
2201;SDS011;1107;48.654;9.250;2023-06-24T14:30:39;4.10;;;3.90;;
2201;SDS011;1107;48.654;9.250;2023-06-24T14:33:09;4.60;;;4.30;;
2201;SDS011;1107;48.654;9.250;2023-06-24T14:35:36;4.00;;;3.80;;
2201;SDS011;1107;48.654;9.250;2023-06-24T14:38:02;4.20;;;4.00;;
2201;SDS011;1107;48.654;9.250;2023-06-24T14:40:30;4.17;;;3.97;;
2201;SDS011;1107;48.654;9.250;2023-06-24T14:42:57;3.93;;;3.60;;
2201;SDS011;1107;48.654;9.250;2023-06-24T14:45:24;4.40;;;4.20;;
2201;SDS011;1107;48.654;9.250;2023-06-24T14:47:51;3.93;;;3.73;;
2201;SDS011;1107;48.654;9.250;2023-06-24T14:50:19;4.40;;;4.20;;
2201;SDS011;1107;48.654;9.250;2023-06-24T14:52:46;4.40;;;4.20;;
2201;SDS011;1107;48.654;9.250;2023-06-24T14:55:13;4.57;;;4.37;;
2201;SDS011;1107;48.654;9.250;2023-06-24T14:57:40;4.30;;;4.10;;
2201;SDS011;1107;48.654;9.250;2023-06-24T15:00:08;4.17;;;3.90;;
2201;SDS011;1107;48.654;9.250;2023-06-24T15:02:36;4.13;;;3.93;;
2201;SDS011;1107;48.654;9.250;2023-06-24T15:05:03;4.70;;;4.50;;
2201;SDS011;1107;48.654;9.250;2023-06-24T15:07:32;4.60;;;4.40;;
2201;SDS011;1107;48.654;9.250;2023-06-24T15:09:59;4.33;;;4.13;;
2201;SDS011;1107;48.654;9.250;2023-06-24T15:12:26;4.20;;;4.00;;
2201;SDS011;1107;48.654;9.250;2023-06-24T15:14:52;4.07;;;3.87;;
2201;SDS011;1107;48.654;9.250;2023-06-24T15:17:19;4.47;;;4.27;;
2201;SDS011;1107;48.654;9.250;2023-06-24T15:19:46;4.77;;;4.57;;
2201;SDS011;1107;48.654;9.250;2023-06-24T15:22:14;4.20;;;3.80;;
2201;SDS011;1107;48.654;9.250;2023-06-24T15:24:42;4.30;;;3.93;;
2201;SDS011;1107;48.654;9.250;2023-06-24T15:27:10;4.83;;;4.63;;
2201;SDS011;1107;48.654;9.250;2023-06-24T15:29:37;4.60;;;4.40;;
2201;SDS011;1107;48.654;9.250;2023-06-24T15:32:04;5.50;;;5.10;;
2201;SDS011;1107;48.654;9.250;2023-06-24T15:34:31;5.10;;;4.90;;
2201;SDS011;1107;48.654;9.250;2023-06-24T15:36:58;4.07;;;3.87;;
2201;SDS011;1107;48.654;9.250;2023-06-24T15:39:25;4.47;;;4.27;;
2201;SDS011;1107;48.654;9.250;2023-06-24T15:41:53;4.40;;;4.20;;
2201;SDS011;1107;48.654;9.250;2023-06-24T15:44:20;4.73;;;4.53;;
2201;SDS011;1107;48.654;9.250;2023-06-24T15:46:47;5.10;;;4.53;;
2201;SDS011;1107;48.654;9.250;2023-06-24T15:49:14;4.73;;;4.53;;
2201;SDS011;1107;48.654;9.250;2023-06-24T15:51:42;7.77;;;4.30;;
2201;SDS011;1107;48.654;9.250;2023-06-24T15:54:08;5.00;;;4.80;;
2201;SDS011;1107;48.654;9.250;2023-06-24T15:56:35;4.20;;;4.00;;
2201;SDS011;1107;48.654;9.250;2023-06-24T15:59:04;4.57;;;4.37;;
2201;SDS011;1107;48.654;9.250;2023-06-24T16:01:31;4.40;;;4.20;;
2201;SDS011;1107;48.654;9.250;2023-06-24T16:03:58;4.30;;;4.10;;
2201;SDS011;1107;48.654;9.250;2023-06-24T16:06:25;5.00;;;4.80;;
2201;SDS011;1107;48.654;9.250;2023-06-24T16:08:51;4.40;;;4.20;;
2201;SDS011;1107;48.654;9.250;2023-06-24T16:11:18;4.60;;;4.40;;
2201;SDS011;1107;48.654;9.250;2023-06-24T16:13:45;4.63;;;4.43;;
2201;SDS011;1107;48.654;9.250;2023-06-24T16:16:14;4.40;;;4.20;;
2201;SDS011;1107;48.654;9.250;2023-06-24T16:18:41;4.60;;;4.40;;
2201;SDS011;1107;48.654;9.250;2023-06-24T16:21:08;4.87;;;4.43;;
2201;SDS011;1107;48.654;9.250;2023-06-24T16:23:35;4.93;;;4.70;;
2201;SDS011;1107;48.654;9.250;2023-06-24T16:26:02;4.10;;;3.90;;
2201;SDS011;1107;48.654;9.250;2023-06-24T16:28:30;4.47;;;4.27;;
2201;SDS011;1107;48.654;9.250;2023-06-24T16:30:56;5.03;;;4.00;;
2201;SDS011;1107;48.654;9.250;2023-06-24T16:33:25;4.60;;;4.40;;
2201;SDS011;1107;48.654;9.250;2023-06-24T16:35:52;5.00;;;4.80;;
2201;SDS011;1107;48.654;9.250;2023-06-24T16:38:19;4.43;;;4.10;;
2201;SDS011;1107;48.654;9.250;2023-06-24T16:40:46;4.40;;;4.20;;
2201;SDS011;1107;48.654;9.250;2023-06-24T16:43:12;5.00;;;4.70;;
2201;SDS011;1107;48.654;9.250;2023-06-24T16:45:39;5.07;;;4.87;;
2201;SDS011;1107;48.654;9.250;2023-06-24T16:48:06;4.97;;;4.77;;
2201;SDS011;1107;48.654;9.250;2023-06-24T16:50:35;4.40;;;4.20;;
2201;SDS011;1107;48.654;9.250;2023-06-24T16:53:02;4.80;;;4.60;;
2201;SDS011;1107;48.654;9.250;2023-06-24T16:55:28;4.30;;;4.10;;
2201;SDS011;1107;48.654;9.250;2023-06-24T16:57:55;4.33;;;4.13;;